createdAt,value
2019-04-22T00:00:36.129Z,22.73
2019-04-22T00:02:42.288Z,24.23
2019-04-22T00:04:53.642Z,21.90
2019-04-22T00:07:03.162Z,22.75
2019-04-22T00:09:11.144Z,25.62
2019-04-22T00:11:23.093Z,25.08
2019-04-22T00:13:25.966Z,26.57
2019-04-22T00:15:18.123Z,26.80
2019-04-22T00:17:36.639Z,27.40
2019-04-22T00:19:45.743Z,26.82
2019-04-22T00:21:35.304Z,24.77
2019-04-22T00:23:37.340Z,23.27
2019-04-22T00:25:46.021Z,28.45
2019-04-22T00:27:47.713Z,25.97
2019-04-22T00:29:59.904Z,25.43
2019-04-22T00:31:58.998Z,30.57
2019-04-22T00:34:06.226Z,25.97
2019-04-22T00:36:14.839Z,24.95
2019-04-22T00:38:18.681Z,24.27
2019-04-22T00:40:21.067Z,22.95
2019-04-22T00:42:21.161Z,22.05
2019-04-22T00:44:33.251Z,24.82
2019-04-22T00:46:36.174Z,21.33
2019-04-22T00:48:33.231Z,21.87
2019-04-22T00:50:40.254Z,21.33
2019-04-22T00:52:43.730Z,21.05
2019-04-22T00:54:47.330Z,23.95
2019-04-22T00:56:47.927Z,22.65
2019-04-22T00:58:46.665Z,24.87
2019-04-22T01:01:00.145Z,22.55
2019-04-22T01:03:01.663Z,27.90
2019-04-22T01:05:04.013Z,28.07
2019-04-22T01:07:09.442Z,21.60
2019-04-22T01:09:11.254Z,25.23
2019-04-22T01:11:16.927Z,24.92
2019-04-22T01:13:22.843Z,24.45
2019-04-22T01:15:23.661Z,24.05
2019-04-22T01:17:27.057Z,22.48
2019-04-22T01:19:34.774Z,19.57
2019-04-22T01:21:36.979Z,18.55
2019-04-22T01:23:34.555Z,20.15
2019-04-22T01:25:39.214Z,19.45
2019-04-22T01:27:34.976Z,19.17
2019-04-22T01:29:39.692Z,19.30
2019-04-22T01:31:34.613Z,18.90
2019-04-22T01:33:40.756Z,16.02
2019-04-22T01:35:58.427Z,19.17
2019-04-22T01:38:00.031Z,18.27
2019-04-22T01:40:12.706Z,20.27
2019-04-22T01:42:10.925Z,20.15
2019-04-22T01:44:27.876Z,20.02
2019-04-22T01:46:29.943Z,18.87
2019-04-22T01:48:26.387Z,22.32
2019-04-22T01:50:31.774Z,19.57
2019-04-22T01:52:32.660Z,19.65
2019-04-22T01:54:43.399Z,20.88
2019-04-22T01:56:40.989Z,21.82
2019-04-22T01:58:38.104Z,21.62
2019-04-22T02:00:49.468Z,20.43
2019-04-22T02:02:48.732Z,20.57
2019-04-22T02:06:57.779Z,18.92
2019-04-22T02:11:07.920Z,18.50
2019-04-22T02:13:11.525Z,17.45
2019-04-22T02:15:13.874Z,17.17
2019-04-22T02:17:22.505Z,17.02
2019-04-22T02:19:29.102Z,17.95
2019-04-22T02:21:13.699Z,19.77
2019-04-22T02:23:45.190Z,21.40
2019-04-22T02:25:34.615Z,17.82
2019-04-22T02:31:45.325Z,20.48
2019-04-22T02:36:15.570Z,20.17
2019-04-22T02:37:54.496Z,22.20
2019-04-22T02:40:10.207Z,20.90
2019-04-22T02:42:03.195Z,20.27
2019-04-22T02:44:09.622Z,18.73
2019-04-22T02:46:22.959Z,16.87
2019-04-22T02:48:26.581Z,17.80
2019-04-22T02:50:08.987Z,22.87
2019-04-22T02:52:25.548Z,20.10
2019-04-22T02:58:38.902Z,20.05
2019-04-22T03:00:38.008Z,18.67
2019-04-22T03:02:46.109Z,19.35
2019-04-22T03:04:41.465Z,18.20
2019-04-22T03:08:45.554Z,19.48
2019-04-22T03:10:56.497Z,19.70
2019-04-22T03:12:54.062Z,18.30
2019-04-22T03:17:17.987Z,18.07
2019-04-22T03:19:13.888Z,21.07
2019-04-22T03:21:07.389Z,18.90
2019-04-22T03:25:43.810Z,17.07
2019-04-22T03:29:18.141Z,18.32
2019-04-22T03:34:22.569Z,20.77
2019-04-22T03:37:48.817Z,16.97
2019-04-22T03:39:55.275Z,19.15
2019-04-22T03:45:51.701Z,18.50
2019-04-22T03:47:59.640Z,18.60
2019-04-22T03:50:06.120Z,19.98
2019-04-22T03:56:32.676Z,20.23
2019-04-22T03:58:30.557Z,18.50
2019-04-22T04:00:29.632Z,19.60
2019-04-22T04:06:29.702Z,30.80
2019-04-22T04:12:51.199Z,19.25
2019-04-22T04:17:00.220Z,16.17
2019-04-22T04:23:14.244Z,20.35
2019-04-22T04:25:19.609Z,17.90
2019-04-22T04:27:18.324Z,16.73
2019-04-22T04:29:26.068Z,17.85
2019-04-22T04:31:24.543Z,18.73
2019-04-22T04:35:40.473Z,16.02
2019-04-22T04:39:26.777Z,19.23
2019-04-22T04:41:33.792Z,17.12
2019-04-22T04:43:35.617Z,19.92
2019-04-22T04:45:47.727Z,19.27
2019-04-22T04:49:52.445Z,19.23
2019-04-22T04:53:57.037Z,19.17
2019-04-22T04:55:57.937Z,18.07
2019-04-22T04:58:09.040Z,18.37
2019-04-22T05:02:04.047Z,15.85
2019-04-22T05:06:12.680Z,19.15
2019-04-22T05:08:16.723Z,20.92
2019-04-22T05:10:23.838Z,17.73
2019-04-22T05:18:29.628Z,17.42
2019-04-22T05:22:35.997Z,18.95
2019-04-22T05:24:40.640Z,16.95
2019-04-22T05:26:40.006Z,16.65
2019-04-22T05:28:42.301Z,16.02
2019-04-22T05:30:43.731Z,18.67
2019-04-22T05:33:01.806Z,22.05
2019-04-22T05:34:52.935Z,17.92
2019-04-22T05:36:58.935Z,18.52
2019-04-22T05:39:00.088Z,17.98
2019-04-22T05:41:02.677Z,16.42
2019-04-22T05:43:01.832Z,15.28
2019-04-22T05:45:10.251Z,20.75
2019-04-22T05:47:14.918Z,17.25
2019-04-22T05:51:21.719Z,17.10
2019-04-22T05:53:20.132Z,17.85
2019-04-22T05:55:43.610Z,17.25
2019-04-22T05:57:26.613Z,19.02
2019-04-22T05:59:36.159Z,17.80
2019-04-22T06:03:39.446Z,17.60
2019-04-22T06:05:43.863Z,18.77
2019-04-22T06:07:47.209Z,17.73
2019-04-22T06:09:55.397Z,16.90
2019-04-22T06:11:50.935Z,17.07
2019-04-22T06:13:57.602Z,17.37
2019-04-22T06:16:03.665Z,16.37
2019-04-22T06:18:16.146Z,17.82
2019-04-22T06:20:09.021Z,15.83
2019-04-22T06:22:23.849Z,16.17
2019-04-22T06:24:23.569Z,18.23
2019-04-22T06:26:31.241Z,17.10
2019-04-22T06:28:38.431Z,17.20
2019-04-22T06:30:28.782Z,19.62
2019-04-22T06:32:51.876Z,18.55
2019-04-22T06:34:44.103Z,18.75
2019-04-22T06:36:47.611Z,17.73
2019-04-22T06:39:00.212Z,13.98
2019-04-22T06:43:01.073Z,16.05
2019-04-22T06:45:02.828Z,15.60
2019-04-22T06:47:00.245Z,15.05
2019-04-22T06:49:03.443Z,18.50
2019-04-22T06:51:02.607Z,14.58
2019-04-22T06:53:26.595Z,14.98
2019-04-22T06:55:30.756Z,17.32
2019-04-22T06:57:11.565Z,13.38
2019-04-22T06:59:18.424Z,17.23
2019-04-22T07:01:35.787Z,13.98
2019-04-22T07:05:27.997Z,15.28
2019-04-22T07:07:34.926Z,13.35
2019-04-22T07:11:38.006Z,11.48
2019-04-22T07:13:43.001Z,13.75
2019-04-22T07:15:59.535Z,11.80
2019-04-22T07:17:49.243Z,10.55
2019-04-22T07:19:47.159Z,14.33
2019-04-22T07:21:57.924Z,11.20
2019-04-22T07:24:14.498Z,12.18
2019-04-22T07:25:58.197Z,11.20
2019-04-22T07:28:05.063Z,13.32
2019-04-22T07:32:39.725Z,12.15
2019-04-22T07:34:22.242Z,11.78
2019-04-22T07:36:42.154Z,12.25
2019-04-22T07:38:26.663Z,11.48
2019-04-22T07:40:28.798Z,10.78
2019-04-22T07:42:32.922Z,10.05
2019-04-22T07:46:43.437Z,10.88
2019-04-22T07:52:44.954Z,12.98
2019-04-22T07:54:53.029Z,10.10
2019-04-22T07:57:04.602Z,9.58
2019-04-22T07:58:55.846Z,8.48
2019-04-22T08:01:03.801Z,9.08
2019-04-22T08:03:06.698Z,11.00
2019-04-22T08:07:14.676Z,11.38
2019-04-22T08:11:30.199Z,11.05
2019-04-22T08:13:17.254Z,9.68
2019-04-22T08:15:30.725Z,8.70
2019-04-22T08:21:35.818Z,6.78
2019-04-22T08:23:35.487Z,10.13
2019-04-22T08:25:41.106Z,8.60
2019-04-22T08:27:46.848Z,9.80
2019-04-22T08:29:53.485Z,6.97
2019-04-22T08:32:05.102Z,9.28
2019-04-22T08:33:54.360Z,10.50
2019-04-22T08:38:01.474Z,7.10
2019-04-22T08:40:08.854Z,8.10
2019-04-22T08:42:16.225Z,6.75
2019-04-22T08:44:07.628Z,8.13
2019-04-22T08:46:25.327Z,7.85
2019-04-22T08:48:16.448Z,9.40
2019-04-22T08:50:19.723Z,7.05
2019-04-22T08:52:29.655Z,5.58
2019-04-22T08:54:31.187Z,5.78
2019-04-22T08:56:45.021Z,8.30
2019-04-22T09:00:44.518Z,5.97
2019-04-22T09:02:49.094Z,7.28
2019-04-22T09:04:45.016Z,13.72
2019-04-22T09:11:00.035Z,5.55
2019-04-22T09:13:00.611Z,5.33
2019-04-22T09:14:57.792Z,5.60
2019-04-22T09:17:13.404Z,6.22
2019-04-22T09:19:24.095Z,8.23
2019-04-22T09:21:18.730Z,7.45
2019-04-22T09:23:23.552Z,6.72
2019-04-22T09:25:22.179Z,5.33
2019-04-22T09:27:34.890Z,4.62
2019-04-22T09:29:30.079Z,5.17
2019-04-22T09:31:31.812Z,8.75
2019-04-22T09:33:31.894Z,4.60
2019-04-22T09:35:43.686Z,4.90
2019-04-22T09:39:53.478Z,4.47
2019-04-22T09:43:54.609Z,6.33
2019-04-22T09:45:52.874Z,5.72
2019-04-22T09:48:05.911Z,6.45
2019-04-22T09:50:03.692Z,5.12
2019-04-22T09:52:06.290Z,6.35
2019-04-22T09:54:14.930Z,6.28
2019-04-22T09:56:09.679Z,5.42
2019-04-22T09:58:20.896Z,5.70
2019-04-22T10:02:28.441Z,10.23
2019-04-22T10:04:25.295Z,5.47
2019-04-22T10:06:34.001Z,4.28
2019-04-22T10:08:40.717Z,5.70
2019-04-22T10:10:48.929Z,5.50
2019-04-22T10:14:45.134Z,6.65
2019-04-22T10:16:59.966Z,6.83
2019-04-22T10:18:52.889Z,7.22
2019-04-22T10:20:54.441Z,6.45
2019-04-22T10:22:59.228Z,5.42
2019-04-22T10:27:01.572Z,6.33
2019-04-22T10:29:11.037Z,6.10
2019-04-22T10:31:14.512Z,10.45
2019-04-22T10:33:23.949Z,6.00
2019-04-22T10:35:15.489Z,6.67
2019-04-22T10:37:18.025Z,7.58
2019-04-22T10:39:18.325Z,7.65
2019-04-22T10:41:20.725Z,6.55
2019-04-22T10:43:23.197Z,6.83
2019-04-22T10:45:26.077Z,11.05
2019-04-22T10:47:28.012Z,6.72
2019-04-22T10:49:30.592Z,7.80
2019-04-22T10:51:32.790Z,8.33
2019-04-22T10:53:35.597Z,8.03
2019-04-22T10:55:40.459Z,9.43
2019-04-22T10:57:41.092Z,8.13
2019-04-22T11:02:11.778Z,5.90
2019-04-22T11:04:14.995Z,8.03
2019-04-22T11:06:17.198Z,10.60
2019-04-22T11:08:27.229Z,6.78
2019-04-22T11:10:41.194Z,10.82
2019-04-22T11:12:29.980Z,6.40
2019-04-22T11:14:30.675Z,6.35
2019-04-22T11:16:32.255Z,5.80
2019-04-22T11:18:33.781Z,6.17
2019-04-22T11:20:35.842Z,6.47
2019-04-22T11:22:38.790Z,6.22
2019-04-22T11:24:41.507Z,5.45
2019-04-22T11:26:43.188Z,5.30
2019-04-22T11:28:49.598Z,5.35
2019-04-22T11:30:52.327Z,6.15
2019-04-22T11:32:55.953Z,6.08
2019-04-22T11:34:58.105Z,4.97
2019-04-22T11:37:01.025Z,4.97
2019-04-22T11:39:07.625Z,5.12
2019-04-22T11:41:09.335Z,5.12
2019-04-22T11:43:12.380Z,6.58
2019-04-22T11:45:15.290Z,7.10
2019-04-22T11:47:17.383Z,7.17
2019-04-22T11:49:19.334Z,5.47
2019-04-22T11:51:22.125Z,6.45
2019-04-22T11:53:24.845Z,7.47
2019-04-22T11:55:46.750Z,5.35
2019-04-22T11:57:49.785Z,6.08
2019-04-22T11:59:51.274Z,7.72
2019-04-22T12:01:52.999Z,6.33
2019-04-22T12:03:55.710Z,8.43
2019-04-22T12:05:57.801Z,5.30
2019-04-22T12:07:59.481Z,5.12
2019-04-22T12:12:07.675Z,6.25
2019-04-22T12:14:13.838Z,7.08
2019-04-22T12:16:15.323Z,4.90
2019-04-22T12:18:17.289Z,6.70
2019-04-22T12:24:27.990Z,7.30
2019-04-22T12:57:12.346Z,7.90
2019-04-22T13:52:48.613Z,9.30
2019-04-22T13:54:48.945Z,7.97
2019-04-22T13:56:43.603Z,6.27
2019-04-22T14:00:36.281Z,6.00
2019-04-22T14:02:48.558Z,7.15
2019-04-22T14:04:52.673Z,5.10
2019-04-22T14:06:54.674Z,4.65
2019-04-22T14:08:56.150Z,6.00
2019-04-22T14:13:01.983Z,10.13
2019-04-22T14:15:06.269Z,10.35
2019-04-22T14:17:09.019Z,5.97
2019-04-22T14:19:11.910Z,6.40
2019-04-22T14:21:14.793Z,14.03
2019-04-22T14:23:17.601Z,7.35
2019-04-22T14:27:30.699Z,7.87
2019-04-22T14:29:26.869Z,7.17
2019-04-22T14:31:28.597Z,7.42
2019-04-22T14:33:30.382Z,8.85
2019-04-22T14:35:31.941Z,7.22
2019-04-22T14:37:34.211Z,5.12
2019-04-22T14:39:35.827Z,8.23
2019-04-22T14:41:55.390Z,4.90
2019-04-22T14:44:23.970Z,5.83
2019-04-22T14:46:20.421Z,5.75
2019-04-22T14:48:11.113Z,6.20
2019-04-22T14:50:14.084Z,3.52
2019-04-22T14:52:15.121Z,6.37
2019-04-22T14:54:13.714Z,5.83
2019-04-22T14:56:00.327Z,4.72
2019-04-22T15:00:09.507Z,8.10
2019-04-22T15:02:11.837Z,5.28
2019-04-22T15:04:13.380Z,8.70
2019-04-22T15:06:15.834Z,5.45
2019-04-22T15:08:17.405Z,8.68
2019-04-22T15:10:20.165Z,5.10
2019-04-22T15:12:31.083Z,5.87
2019-04-22T15:14:25.668Z,7.15
2019-04-22T15:18:44.443Z,13.32
2019-04-22T15:23:04.754Z,5.00
2019-04-22T15:25:06.551Z,5.58
2019-04-22T15:27:08.750Z,5.77
2019-04-22T15:29:11.412Z,5.75
2019-04-22T15:31:13.280Z,4.45
2019-04-22T15:33:15.222Z,6.15
2019-04-22T15:35:17.528Z,6.72
2019-04-22T15:37:20.350Z,4.85
2019-04-22T15:39:25.047Z,3.72
2019-04-22T15:41:26.454Z,4.10
2019-04-22T15:43:33.025Z,7.75
2019-04-22T15:45:34.933Z,8.10
2019-04-22T15:47:37.737Z,4.80
2019-04-22T15:49:40.263Z,4.12
2019-04-22T15:51:42.896Z,4.78
2019-04-22T15:53:45.462Z,3.02
2019-04-22T15:55:47.212Z,5.20
2019-04-22T15:57:49.835Z,6.17
2019-04-22T16:00:08.211Z,6.10
2019-04-22T16:01:58.610Z,5.97
2019-04-22T16:03:58.852Z,4.70
2019-04-22T16:06:02.020Z,2.95
2019-04-22T16:08:03.653Z,3.17
2019-04-22T16:12:18.193Z,3.42
2019-04-22T16:14:15.076Z,5.20
2019-04-22T16:16:16.402Z,5.25
2019-04-22T16:18:18.355Z,2.62
2019-04-22T16:20:22.999Z,2.62
2019-04-22T16:22:25.129Z,6.97
2019-04-22T16:24:29.734Z,4.12
2019-04-22T16:26:40.167Z,5.65
2019-04-22T16:28:43.041Z,6.15
2019-04-22T16:30:45.533Z,9.25
2019-04-22T16:32:47.571Z,4.75
2019-04-22T16:34:49.904Z,3.22
2019-04-22T16:36:52.737Z,3.95
2019-04-22T16:38:55.435Z,4.15
2019-04-22T16:40:58.741Z,5.72
2019-04-22T16:43:03.835Z,6.70
2019-04-22T16:45:05.674Z,4.60
2019-04-22T16:47:08.034Z,3.20
2019-04-22T16:49:29.854Z,3.55
2019-04-22T16:53:34.919Z,7.53
2019-04-22T16:55:36.900Z,2.60
2019-04-22T16:57:39.715Z,4.53
2019-04-22T16:59:42.783Z,4.95
2019-04-22T17:01:46.333Z,8.45
2019-04-22T17:04:07.023Z,5.30
2019-04-22T17:06:11.842Z,3.37
2019-04-22T17:08:14.288Z,5.35
2019-04-22T17:10:15.821Z,8.25
2019-04-22T17:14:29.694Z,2.47
2019-04-22T17:16:21.805Z,4.97
2019-04-22T17:18:23.559Z,4.10
2019-04-22T17:20:25.387Z,4.37
2019-04-22T17:22:27.103Z,2.65
2019-04-22T17:24:35.837Z,7.95
2019-04-22T17:26:54.732Z,3.85
2019-04-22T17:29:04.003Z,5.30
2019-04-22T17:31:04.572Z,2.87
2019-04-22T17:33:06.456Z,4.87
2019-04-22T17:35:08.385Z,2.75
2019-04-22T17:37:18.329Z,2.85
2019-04-22T17:39:27.013Z,2.77
2019-04-22T17:41:28.327Z,6.85
2019-04-22T17:43:59.194Z,2.47
2019-04-22T17:45:54.141Z,3.58
2019-04-22T17:48:14.153Z,4.87
2019-04-22T17:50:16.932Z,4.35
2019-04-22T17:52:23.181Z,5.40
2019-04-22T17:54:19.169Z,3.35
2019-04-22T17:56:27.863Z,2.83
2019-04-22T17:58:34.723Z,2.87
2019-04-22T18:00:32.339Z,5.40
2019-04-22T18:02:32.237Z,4.30
2019-04-22T18:04:29.057Z,3.83
2019-04-22T18:06:58.244Z,3.22
2019-04-22T18:08:50.656Z,3.10
2019-04-22T18:10:54.336Z,3.95
2019-04-22T18:13:09.756Z,4.17
2019-04-22T18:15:04.016Z,4.53
2019-04-22T18:17:07.252Z,3.42
2019-04-22T18:19:10.100Z,5.65
2019-04-22T18:21:08.976Z,4.40
2019-04-22T18:23:04.292Z,3.42
2019-04-22T18:25:11.475Z,5.85
2019-04-22T18:29:28.097Z,3.92
2019-04-22T18:31:21.506Z,4.37
2019-04-22T18:33:33.940Z,3.35
2019-04-22T18:35:42.158Z,3.25
2019-04-22T18:37:42.481Z,5.83
2019-04-22T18:39:52.723Z,3.37
2019-04-22T18:41:48.701Z,3.95
2019-04-22T18:43:59.004Z,4.00
2019-04-22T18:46:05.253Z,7.22
2019-04-22T18:47:53.111Z,4.60
2019-04-22T18:50:03.344Z,3.15
2019-04-22T18:52:18.073Z,4.45
2019-04-22T18:54:18.034Z,5.78
2019-04-22T18:56:25.405Z,5.78
2019-04-22T18:58:21.468Z,3.52
2019-04-22T19:00:23.449Z,2.75
2019-04-22T19:02:28.754Z,3.40
2019-04-22T19:04:40.890Z,2.27
2019-04-22T19:06:56.209Z,4.15
2019-04-22T19:09:05.332Z,5.08
2019-04-22T19:13:41.958Z,4.37
2019-04-22T19:15:13.216Z,3.55
2019-04-22T19:17:21.585Z,4.85
2019-04-22T19:21:16.304Z,4.58
2019-04-22T19:23:22.659Z,3.95
2019-04-22T19:25:17.285Z,4.35
2019-04-22T19:27:31.260Z,4.58
2019-04-22T19:29:31.647Z,3.67
2019-04-22T19:31:37.361Z,5.90
2019-04-22T19:33:39.981Z,5.10
2019-04-22T19:35:37.016Z,4.75
2019-04-22T19:37:42.401Z,6.25
2019-04-22T19:39:52.559Z,3.65
2019-04-22T19:41:59.185Z,7.42
2019-04-22T19:43:56.937Z,5.35
2019-04-22T19:45:58.930Z,4.42
2019-04-22T19:48:03.601Z,5.83
2019-04-22T19:50:15.058Z,4.40
2019-04-22T19:52:12.830Z,4.15
2019-04-22T19:54:13.911Z,4.85
2019-04-22T19:56:10.087Z,5.50
2019-04-22T19:58:18.532Z,2.58
2019-04-22T20:00:22.902Z,4.17
2019-04-22T20:02:51.425Z,3.67
2019-04-22T20:05:24.588Z,4.17
2019-04-22T20:07:15.419Z,3.77
2019-04-22T20:09:26.376Z,4.00
2019-04-22T20:11:29.677Z,7.15
2019-04-22T20:13:30.630Z,6.55
2019-04-22T20:15:28.206Z,3.50
2019-04-22T20:18:11.685Z,4.95
2019-04-22T20:19:45.363Z,5.85
2019-04-22T20:21:40.614Z,3.77
2019-04-22T20:23:39.592Z,3.67
2019-04-22T20:25:44.917Z,9.38
2019-04-22T20:27:58.073Z,9.05
2019-04-22T20:30:02.400Z,5.35
2019-04-22T20:31:59.281Z,7.17
2019-04-22T20:34:09.127Z,6.03
2019-04-22T20:36:12.833Z,6.17
2019-04-22T20:38:12.198Z,7.35
2019-04-22T20:40:19.394Z,10.20
2019-04-22T20:42:31.366Z,3.30
2019-04-22T20:44:28.157Z,5.72
2019-04-22T20:46:24.095Z,5.55
2019-04-22T20:48:22.289Z,3.12
2019-04-22T20:50:39.502Z,4.75
2019-04-22T20:52:39.892Z,5.47
2019-04-22T20:54:40.727Z,10.68
2019-04-22T20:56:37.149Z,4.03
2019-04-22T20:58:46.623Z,5.30
2019-04-22T21:00:40.584Z,5.12
2019-04-22T21:02:44.011Z,6.08
2019-04-22T21:04:44.119Z,6.60
2019-04-22T21:06:55.989Z,5.75
2019-04-22T21:08:59.115Z,7.83
2019-04-22T21:10:57.714Z,6.58
2019-04-22T21:13:05.603Z,9.73
2019-04-22T21:15:13.623Z,4.22
2019-04-22T21:17:17.212Z,4.12
2019-04-22T21:19:28.024Z,16.40
2019-04-22T21:21:29.680Z,5.90
2019-04-22T21:23:24.230Z,8.25
2019-04-22T21:25:23.938Z,3.37
2019-04-22T21:27:35.385Z,6.50
2019-04-22T21:29:30.483Z,8.48
2019-04-22T21:31:43.754Z,8.25
2019-04-22T21:33:44.735Z,5.22
2019-04-22T21:37:50.591Z,9.78
2019-04-22T21:39:46.271Z,8.68
2019-04-22T21:41:51.436Z,3.52
2019-04-22T21:43:58.242Z,4.67
2019-04-22T21:46:04.870Z,2.75
2019-04-22T21:48:13.473Z,5.72
2019-04-22T21:50:31.043Z,6.55
2019-04-22T21:52:13.528Z,2.67
2019-04-22T21:54:21.563Z,5.10
2019-04-22T21:56:36.820Z,4.30
2019-04-22T21:58:27.496Z,4.50
2019-04-22T22:00:45.463Z,3.83
2019-04-22T22:02:46.476Z,6.62
2019-04-22T22:04:41.237Z,5.92
2019-04-22T22:06:40.400Z,3.95
2019-04-22T22:08:52.488Z,6.65
2019-04-22T22:10:51.207Z,8.08
2019-04-22T22:13:00.500Z,5.53
2019-04-22T22:15:04.195Z,9.98
2019-04-22T22:17:00.183Z,4.87
2019-04-22T22:19:22.405Z,4.55
2019-04-22T22:21:25.289Z,6.60
2019-04-22T22:23:22.434Z,5.87
2019-04-22T22:25:19.881Z,5.47
2019-04-22T22:27:20.494Z,6.85
2019-04-22T22:29:40.183Z,5.15
2019-04-22T22:31:38.160Z,8.25
2019-04-22T22:33:33.375Z,5.30
2019-04-22T22:35:39.179Z,5.33
2019-04-22T22:37:26.945Z,5.87
2019-04-22T22:39:35.765Z,5.05
2019-04-22T22:41:23.934Z,7.22
2019-04-22T22:43:33.650Z,5.08
2019-04-22T22:45:37.477Z,6.12
2019-04-22T22:47:53.394Z,7.05
2019-04-22T22:50:00.803Z,7.08
2019-04-22T22:52:26.279Z,9.50
2019-04-22T22:54:03.820Z,7.40
2019-04-22T22:56:13.985Z,8.30
2019-04-22T22:58:14.242Z,12.47
2019-04-22T23:00:15.040Z,6.33
2019-04-22T23:02:20.478Z,10.90
2019-04-22T23:04:28.395Z,7.92
2019-04-22T23:06:32.865Z,7.53
2019-04-22T23:08:34.285Z,10.10
2019-04-22T23:10:34.133Z,9.35
2019-04-22T23:12:40.532Z,10.60
2019-04-22T23:14:37.156Z,6.25
2019-04-22T23:16:31.566Z,5.97
2019-04-22T23:18:25.773Z,8.18
2019-04-22T23:20:34.375Z,4.92
2019-04-22T23:22:58.816Z,6.55
2019-04-22T23:24:55.512Z,8.10
2019-04-22T23:27:03.206Z,7.03
2019-04-22T23:29:10.403Z,6.05
2019-04-22T23:31:14.132Z,8.65
2019-04-22T23:33:40.538Z,5.00
2019-04-22T23:35:42.481Z,7.28
2019-04-22T23:37:52.333Z,8.45
2019-04-22T23:42:00.673Z,10.00
2019-04-22T23:44:02.070Z,9.63
2019-04-22T23:46:02.640Z,7.75
2019-04-22T23:48:05.861Z,8.08
2019-04-22T23:50:08.846Z,7.65
2019-04-22T23:52:19.189Z,11.88
2019-04-22T23:54:24.009Z,6.03
2019-04-22T23:56:28.060Z,6.92
2019-04-22T23:58:44.836Z,6.15
